sensor_id;sensor_type;location;lat;lon;timestamp;P1;durP1;ratioP1;P2;durP2;ratioP2
61391;SDS011;47261;52.892;5.738;2023-12-20T00:01:02;20.37;;;1.90;;
61391;SDS011;47261;52.892;5.738;2023-12-20T00:03:28;15.95;;;1.20;;
61391;SDS011;47261;52.892;5.738;2023-12-20T00:05:54;13.70;;;1.30;;
61391;SDS011;47261;52.892;5.738;2023-12-20T00:08:20;16.90;;;2.10;;
61391;SDS011;47261;52.892;5.738;2023-12-20T00:10:46;20.92;;;1.45;;
61391;SDS011;47261;52.892;5.738;2023-12-20T00:13:11;18.38;;;1.58;;
61391;SDS011;47261;52.892;5.738;2023-12-20T00:15:37;16.60;;;1.30;;
61391;SDS011;47261;52.892;5.738;2023-12-20T00:18:03;23.00;;;1.73;;
61391;SDS011;47261;52.892;5.738;2023-12-20T00:20:29;19.35;;;2.38;;
61391;SDS011;47261;52.892;5.738;2023-12-20T00:22:56;20.60;;;1.40;;
61391;SDS011;47261;52.892;5.738;2023-12-20T00:25:23;19.08;;;1.80;;
61391;SDS011;47261;52.892;5.738;2023-12-20T00:27:49;21.65;;;1.55;;
61391;SDS011;47261;52.892;5.738;2023-12-20T00:30:14;19.60;;;1.93;;
61391;SDS011;47261;52.892;5.738;2023-12-20T00:32:40;16.23;;;2.23;;
61391;SDS011;47261;52.892;5.738;2023-12-20T00:35:11;20.73;;;1.27;;
61391;SDS011;47261;52.892;5.738;2023-12-20T00:37:37;13.65;;;1.33;;
61391;SDS011;47261;52.892;5.738;2023-12-20T00:40:03;17.08;;;1.20;;
61391;SDS011;47261;52.892;5.738;2023-12-20T00:42:29;12.57;;;1.40;;
61391;SDS011;47261;52.892;5.738;2023-12-20T00:44:55;26.45;;;2.50;;
61391;SDS011;47261;52.892;5.738;2023-12-20T00:47:20;7.53;;;0.90;;
61391;SDS011;47261;52.892;5.738;2023-12-20T00:49:47;5.78;;;0.47;;
61391;SDS011;47261;52.892;5.738;2023-12-20T00:52:12;9.53;;;1.27;;
61391;SDS011;47261;52.892;5.738;2023-12-20T00:54:38;21.77;;;2.28;;
61391;SDS011;47261;52.892;5.738;2023-12-20T00:57:04;18.20;;;1.45;;
61391;SDS011;47261;52.892;5.738;2023-12-20T00:59:30;23.98;;;1.60;;
61391;SDS011;47261;52.892;5.738;2023-12-20T01:01:55;15.80;;;1.63;;
61391;SDS011;47261;52.892;5.738;2023-12-20T01:04:21;20.05;;;1.67;;
61391;SDS011;47261;52.892;5.738;2023-12-20T01:06:47;9.90;;;1.30;;
61391;SDS011;47261;52.892;5.738;2023-12-20T01:09:12;14.05;;;1.33;;
61391;SDS011;47261;52.892;5.738;2023-12-20T01:11:38;20.13;;;1.73;;
61391;SDS011;47261;52.892;5.738;2023-12-20T01:14:03;19.77;;;1.80;;
61391;SDS011;47261;52.892;5.738;2023-12-20T01:16:29;14.73;;;1.65;;
61391;SDS011;47261;52.892;5.738;2023-12-20T01:18:54;24.50;;;2.43;;
61391;SDS011;47261;52.892;5.738;2023-12-20T01:21:20;27.70;;;1.83;;
61391;SDS011;47261;52.892;5.738;2023-12-20T01:23:46;21.77;;;2.22;;
61391;SDS011;47261;52.892;5.738;2023-12-20T01:26:11;22.73;;;2.50;;
61391;SDS011;47261;52.892;5.738;2023-12-20T01:28:37;23.08;;;2.20;;
61391;SDS011;47261;52.892;5.738;2023-12-20T01:31:03;21.52;;;2.20;;
61391;SDS011;47261;52.892;5.738;2023-12-20T01:33:29;21.20;;;2.30;;
61391;SDS011;47261;52.892;5.738;2023-12-20T01:35:54;16.75;;;1.40;;
61391;SDS011;47261;52.892;5.738;2023-12-20T01:38:20;13.83;;;1.37;;
61391;SDS011;47261;52.892;5.738;2023-12-20T01:40:46;24.60;;;2.07;;
61391;SDS011;47261;52.892;5.738;2023-12-20T01:43:11;23.30;;;2.47;;
61391;SDS011;47261;52.892;5.738;2023-12-20T01:45:38;14.23;;;1.63;;
61391;SDS011;47261;52.892;5.738;2023-12-20T01:48:05;15.93;;;1.67;;
61391;SDS011;47261;52.892;5.738;2023-12-20T01:50:31;23.75;;;2.28;;
61391;SDS011;47261;52.892;5.738;2023-12-20T01:53:00;20.58;;;2.20;;
61391;SDS011;47261;52.892;5.738;2023-12-20T01:55:27;14.52;;;1.48;;
61391;SDS011;47261;52.892;5.738;2023-12-20T01:57:56;16.42;;;2.15;;
61391;SDS011;47261;52.892;5.738;2023-12-20T02:00:23;8.73;;;1.40;;
61391;SDS011;47261;52.892;5.738;2023-12-20T02:02:51;23.00;;;2.65;;
61391;SDS011;47261;52.892;5.738;2023-12-20T02:05:18;24.02;;;2.97;;
61391;SDS011;47261;52.892;5.738;2023-12-20T02:07:44;16.13;;;1.75;;
61391;SDS011;47261;52.892;5.738;2023-12-20T02:10:10;27.20;;;2.60;;
61391;SDS011;47261;52.892;5.738;2023-12-20T02:12:35;12.97;;;1.53;;
61391;SDS011;47261;52.892;5.738;2023-12-20T02:15:01;26.67;;;2.33;;
61391;SDS011;47261;52.892;5.738;2023-12-20T02:17:27;19.83;;;2.50;;
61391;SDS011;47261;52.892;5.738;2023-12-20T02:19:54;20.08;;;2.30;;
61391;SDS011;47261;52.892;5.738;2023-12-20T02:22:20;20.65;;;1.85;;
61391;SDS011;47261;52.892;5.738;2023-12-20T02:24:45;18.13;;;1.53;;
61391;SDS011;47261;52.892;5.738;2023-12-20T02:27:11;20.33;;;1.97;;
61391;SDS011;47261;52.892;5.738;2023-12-20T02:29:37;26.00;;;2.30;;
61391;SDS011;47261;52.892;5.738;2023-12-20T02:32:03;13.33;;;1.83;;
61391;SDS011;47261;52.892;5.738;2023-12-20T02:34:29;18.93;;;2.53;;
61391;SDS011;47261;52.892;5.738;2023-12-20T02:36:54;9.60;;;1.30;;
61391;SDS011;47261;52.892;5.738;2023-12-20T02:39:20;23.20;;;2.60;;
61391;SDS011;47261;52.892;5.738;2023-12-20T02:41:47;16.23;;;1.90;;
61391;SDS011;47261;52.892;5.738;2023-12-20T02:44:13;24.57;;;2.67;;
61391;SDS011;47261;52.892;5.738;2023-12-20T02:46:38;15.57;;;1.77;;
61391;SDS011;47261;52.892;5.738;2023-12-20T02:49:04;14.90;;;1.77;;
61391;SDS011;47261;52.892;5.738;2023-12-20T02:51:31;13.10;;;2.00;;
61391;SDS011;47261;52.892;5.738;2023-12-20T02:53:56;14.68;;;2.15;;
61391;SDS011;47261;52.892;5.738;2023-12-20T02:56:22;17.30;;;1.80;;
61391;SDS011;47261;52.892;5.738;2023-12-20T02:58:47;22.80;;;2.83;;
61391;SDS011;47261;52.892;5.738;2023-12-20T03:01:13;24.40;;;2.53;;
61391;SDS011;47261;52.892;5.738;2023-12-20T03:03:39;17.85;;;1.70;;
61391;SDS011;47261;52.892;5.738;2023-12-20T03:06:05;17.33;;;2.43;;
61391;SDS011;47261;52.892;5.738;2023-12-20T03:08:30;13.38;;;2.47;;
61391;SDS011;47261;52.892;5.738;2023-12-20T03:10:56;19.17;;;2.23;;
61391;SDS011;47261;52.892;5.738;2023-12-20T03:13:23;16.23;;;1.95;;
61391;SDS011;47261;52.892;5.738;2023-12-20T03:15:49;18.27;;;1.93;;
61391;SDS011;47261;52.892;5.738;2023-12-20T03:18:14;18.05;;;2.13;;
61391;SDS011;47261;52.892;5.738;2023-12-20T03:20:40;14.73;;;2.07;;
61391;SDS011;47261;52.892;5.738;2023-12-20T03:23:06;11.43;;;1.63;;
61391;SDS011;47261;52.892;5.738;2023-12-20T03:25:32;14.67;;;1.90;;
61391;SDS011;47261;52.892;5.738;2023-12-20T03:27:58;17.15;;;1.60;;
61391;SDS011;47261;52.892;5.738;2023-12-20T03:30:23;28.23;;;3.27;;
61391;SDS011;47261;52.892;5.738;2023-12-20T03:32:49;26.58;;;3.85;;
61391;SDS011;47261;52.892;5.738;2023-12-20T03:35:14;28.65;;;2.80;;
61391;SDS011;47261;52.892;5.738;2023-12-20T03:37:40;20.60;;;2.33;;
61391;SDS011;47261;52.892;5.738;2023-12-20T03:40:06;25.67;;;2.83;;
61391;SDS011;47261;52.892;5.738;2023-12-20T03:42:32;12.00;;;1.70;;
61391;SDS011;47261;52.892;5.738;2023-12-20T03:44:57;11.90;;;2.03;;
61391;SDS011;47261;52.892;5.738;2023-12-20T03:47:23;22.63;;;2.47;;
61391;SDS011;47261;52.892;5.738;2023-12-20T03:49:48;20.13;;;2.45;;
61391;SDS011;47261;52.892;5.738;2023-12-20T03:52:14;13.90;;;2.50;;
61391;SDS011;47261;52.892;5.738;2023-12-20T03:54:40;17.67;;;2.77;;
61391;SDS011;47261;52.892;5.738;2023-12-20T03:57:07;14.32;;;2.63;;
61391;SDS011;47261;52.892;5.738;2023-12-20T03:59:36;30.20;;;3.55;;
61391;SDS011;47261;52.892;5.738;2023-12-20T04:02:02;20.85;;;2.33;;
61391;SDS011;47261;52.892;5.738;2023-12-20T04:04:29;15.98;;;3.10;;
61391;SDS011;47261;52.892;5.738;2023-12-20T04:06:54;16.23;;;2.28;;
61391;SDS011;47261;52.892;5.738;2023-12-20T04:09:20;22.55;;;2.42;;
61391;SDS011;47261;52.892;5.738;2023-12-20T04:11:46;24.48;;;2.55;;
61391;SDS011;47261;52.892;5.738;2023-12-20T04:14:11;18.90;;;2.80;;
61391;SDS011;47261;52.892;5.738;2023-12-20T04:16:37;20.02;;;2.72;;
61391;SDS011;47261;52.892;5.738;2023-12-20T04:19:04;19.92;;;2.67;;
61391;SDS011;47261;52.892;5.738;2023-12-20T04:21:30;22.23;;;2.40;;
61391;SDS011;47261;52.892;5.738;2023-12-20T04:23:55;24.75;;;2.50;;
61391;SDS011;47261;52.892;5.738;2023-12-20T04:26:21;17.20;;;1.85;;
61391;SDS011;47261;52.892;5.738;2023-12-20T04:28:47;23.03;;;3.87;;
61391;SDS011;47261;52.892;5.738;2023-12-20T04:31:12;26.90;;;2.73;;
61391;SDS011;47261;52.892;5.738;2023-12-20T04:33:38;23.90;;;2.58;;
61391;SDS011;47261;52.892;5.738;2023-12-20T04:36:04;24.70;;;2.90;;
61391;SDS011;47261;52.892;5.738;2023-12-20T04:38:30;20.38;;;2.72;;
61391;SDS011;47261;52.892;5.738;2023-12-20T04:40:55;17.43;;;2.60;;
61391;SDS011;47261;52.892;5.738;2023-12-20T04:43:21;14.30;;;2.00;;
61391;SDS011;47261;52.892;5.738;2023-12-20T04:45:47;17.35;;;2.03;;
61391;SDS011;47261;52.892;5.738;2023-12-20T04:48:13;26.27;;;2.63;;
61391;SDS011;47261;52.892;5.738;2023-12-20T04:50:38;20.88;;;2.50;;
61391;SDS011;47261;52.892;5.738;2023-12-20T04:53:04;15.90;;;1.70;;
61391;SDS011;47261;52.892;5.738;2023-12-20T04:55:29;18.07;;;2.30;;
61391;SDS011;47261;52.892;5.738;2023-12-20T04:57:55;26.88;;;2.75;;
61391;SDS011;47261;52.892;5.738;2023-12-20T05:00:21;16.67;;;2.25;;
61391;SDS011;47261;52.892;5.738;2023-12-20T05:02:47;22.00;;;2.47;;
61391;SDS011;47261;52.892;5.738;2023-12-20T05:05:12;24.20;;;2.27;;
61391;SDS011;47261;52.892;5.738;2023-12-20T05:07:40;19.27;;;1.92;;
61391;SDS011;47261;52.892;5.738;2023-12-20T05:10:06;20.73;;;2.50;;
61391;SDS011;47261;52.892;5.738;2023-12-20T05:12:33;23.40;;;2.58;;
61391;SDS011;47261;52.892;5.738;2023-12-20T05:14:59;13.13;;;1.67;;
61391;SDS011;47261;52.892;5.738;2023-12-20T05:17:25;24.83;;;2.88;;
61391;SDS011;47261;52.892;5.738;2023-12-20T05:19:50;19.10;;;2.43;;
61391;SDS011;47261;52.892;5.738;2023-12-20T05:22:16;23.08;;;3.25;;
61391;SDS011;47261;52.892;5.738;2023-12-20T05:24:42;20.23;;;2.57;;
61391;SDS011;47261;52.892;5.738;2023-12-20T05:27:08;25.10;;;2.37;;
61391;SDS011;47261;52.892;5.738;2023-12-20T05:29:33;16.27;;;3.10;;
61391;SDS011;47261;52.892;5.738;2023-12-20T05:31:59;22.30;;;2.78;;
61391;SDS011;47261;52.892;5.738;2023-12-20T05:34:24;19.37;;;2.50;;
61391;SDS011;47261;52.892;5.738;2023-12-20T05:36:50;30.83;;;4.37;;
61391;SDS011;47261;52.892;5.738;2023-12-20T05:39:16;16.70;;;3.23;;
61391;SDS011;47261;52.892;5.738;2023-12-20T05:41:42;28.02;;;3.80;;
61391;SDS011;47261;52.892;5.738;2023-12-20T05:44:07;18.47;;;2.20;;
61391;SDS011;47261;52.892;5.738;2023-12-20T05:46:33;25.53;;;3.50;;
61391;SDS011;47261;52.892;5.738;2023-12-20T05:48:58;19.83;;;2.45;;
61391;SDS011;47261;52.892;5.738;2023-12-20T05:51:24;12.50;;;1.47;;
61391;SDS011;47261;52.892;5.738;2023-12-20T05:53:50;24.88;;;2.30;;
61391;SDS011;47261;52.892;5.738;2023-12-20T05:56:16;24.83;;;3.00;;
61391;SDS011;47261;52.892;5.738;2023-12-20T05:58:41;23.48;;;3.28;;
61391;SDS011;47261;52.892;5.738;2023-12-20T06:01:08;27.20;;;2.70;;
61391;SDS011;47261;52.892;5.738;2023-12-20T06:03:34;14.53;;;2.63;;
61391;SDS011;47261;52.892;5.738;2023-12-20T06:06:04;24.63;;;1.87;;
61391;SDS011;47261;52.892;5.738;2023-12-20T06:08:32;23.33;;;2.67;;
61391;SDS011;47261;52.892;5.738;2023-12-20T06:10:58;25.30;;;3.27;;
61391;SDS011;47261;52.892;5.738;2023-12-20T06:13:24;19.15;;;2.22;;
61391;SDS011;47261;52.892;5.738;2023-12-20T06:15:49;24.37;;;2.30;;
61391;SDS011;47261;52.892;5.738;2023-12-20T06:18:15;17.10;;;1.98;;
61391;SDS011;47261;52.892;5.738;2023-12-20T06:20:41;22.10;;;2.30;;
61391;SDS011;47261;52.892;5.738;2023-12-20T06:23:07;14.52;;;1.85;;
61391;SDS011;47261;52.892;5.738;2023-12-20T06:25:32;32.80;;;4.10;;
61391;SDS011;47261;52.892;5.738;2023-12-20T06:27:58;18.83;;;2.70;;
61391;SDS011;47261;52.892;5.738;2023-12-20T06:30:23;11.33;;;2.30;;
61391;SDS011;47261;52.892;5.738;2023-12-20T06:32:50;15.45;;;1.92;;
61391;SDS011;47261;52.892;5.738;2023-12-20T06:35:17;19.23;;;2.60;;
61391;SDS011;47261;52.892;5.738;2023-12-20T06:37:42;22.10;;;3.33;;
61391;SDS011;47261;52.892;5.738;2023-12-20T06:40:09;24.27;;;2.95;;
61391;SDS011;47261;52.892;5.738;2023-12-20T06:42:35;24.10;;;2.53;;
61391;SDS011;47261;52.892;5.738;2023-12-20T06:45:01;25.00;;;2.90;;
61391;SDS011;47261;52.892;5.738;2023-12-20T06:47:27;19.83;;;3.07;;
61391;SDS011;47261;52.892;5.738;2023-12-20T06:49:52;24.48;;;3.25;;
61391;SDS011;47261;52.892;5.738;2023-12-20T06:52:18;24.73;;;3.33;;
61391;SDS011;47261;52.892;5.738;2023-12-20T06:54:43;15.00;;;2.47;;
61391;SDS011;47261;52.892;5.738;2023-12-20T06:57:09;24.30;;;2.53;;
61391;SDS011;47261;52.892;5.738;2023-12-20T06:59:41;18.90;;;2.30;;
61391;SDS011;47261;52.892;5.738;2023-12-20T07:02:07;29.80;;;4.68;;
61391;SDS011;47261;52.892;5.738;2023-12-20T07:04:33;15.88;;;2.55;;
61391;SDS011;47261;52.892;5.738;2023-12-20T07:06:59;17.15;;;2.45;;
61391;SDS011;47261;52.892;5.738;2023-12-20T07:09:25;17.87;;;2.50;;
61391;SDS011;47261;52.892;5.738;2023-12-20T07:11:51;13.18;;;2.13;;
61391;SDS011;47261;52.892;5.738;2023-12-20T07:14:17;24.35;;;2.67;;
61391;SDS011;47261;52.892;5.738;2023-12-20T07:16:43;13.93;;;1.87;;
61391;SDS011;47261;52.892;5.738;2023-12-20T07:19:08;26.15;;;2.67;;
61391;SDS011;47261;52.892;5.738;2023-12-20T07:21:34;21.13;;;2.63;;
61391;SDS011;47261;52.892;5.738;2023-12-20T07:23:59;16.77;;;2.75;;
61391;SDS011;47261;52.892;5.738;2023-12-20T07:26:25;19.88;;;2.83;;
61391;SDS011;47261;52.892;5.738;2023-12-20T07:28:51;21.43;;;3.77;;
61391;SDS011;47261;52.892;5.738;2023-12-20T07:31:16;20.98;;;2.78;;
61391;SDS011;47261;52.892;5.738;2023-12-20T07:33:42;17.67;;;2.77;;
61391;SDS011;47261;52.892;5.738;2023-12-20T07:36:07;21.33;;;3.40;;
61391;SDS011;47261;52.892;5.738;2023-12-20T07:38:33;20.13;;;1.93;;
61391;SDS011;47261;52.892;5.738;2023-12-20T07:40:59;25.42;;;3.38;;
61391;SDS011;47261;52.892;5.738;2023-12-20T07:43:25;17.40;;;2.63;;
61391;SDS011;47261;52.892;5.738;2023-12-20T07:45:50;19.98;;;3.55;;
61391;SDS011;47261;52.892;5.738;2023-12-20T07:48:16;23.43;;;2.53;;
61391;SDS011;47261;52.892;5.738;2023-12-20T07:50:42;18.33;;;2.83;;
61391;SDS011;47261;52.892;5.738;2023-12-20T07:53:07;23.57;;;2.97;;
61391;SDS011;47261;52.892;5.738;2023-12-20T07:55:33;23.58;;;3.08;;
61391;SDS011;47261;52.892;5.738;2023-12-20T07:57:59;16.23;;;2.90;;
61391;SDS011;47261;52.892;5.738;2023-12-20T08:00:25;17.98;;;3.20;;
61391;SDS011;47261;52.892;5.738;2023-12-20T08:02:51;23.58;;;3.22;;
61391;SDS011;47261;52.892;5.738;2023-12-20T08:05:17;18.33;;;2.80;;
61391;SDS011;47261;52.892;5.738;2023-12-20T08:07:42;15.68;;;2.38;;
61391;SDS011;47261;52.892;5.738;2023-12-20T08:10:08;17.80;;;2.47;;
61391;SDS011;47261;52.892;5.738;2023-12-20T08:12:34;18.55;;;2.67;;
61391;SDS011;47261;52.892;5.738;2023-12-20T08:14:59;15.63;;;2.87;;
61391;SDS011;47261;52.892;5.738;2023-12-20T08:17:26;18.20;;;3.20;;
61391;SDS011;47261;52.892;5.738;2023-12-20T08:19:51;17.67;;;3.57;;
61391;SDS011;47261;52.892;5.738;2023-12-20T08:22:17;13.57;;;2.42;;
61391;SDS011;47261;52.892;5.738;2023-12-20T08:24:43;16.70;;;2.70;;
61391;SDS011;47261;52.892;5.738;2023-12-20T08:27:08;13.55;;;2.17;;
61391;SDS011;47261;52.892;5.738;2023-12-20T08:29:34;18.42;;;2.67;;
61391;SDS011;47261;52.892;5.738;2023-12-20T08:32:00;18.48;;;3.17;;
61391;SDS011;47261;52.892;5.738;2023-12-20T08:34:26;17.05;;;2.58;;
61391;SDS011;47261;52.892;5.738;2023-12-20T08:36:52;17.67;;;2.83;;
61391;SDS011;47261;52.892;5.738;2023-12-20T08:39:17;17.95;;;3.13;;
61391;SDS011;47261;52.892;5.738;2023-12-20T08:41:43;13.60;;;2.60;;
61391;SDS011;47261;52.892;5.738;2023-12-20T08:44:09;14.50;;;2.63;;
61391;SDS011;47261;52.892;5.738;2023-12-20T08:46:35;23.67;;;3.08;;
61391;SDS011;47261;52.892;5.738;2023-12-20T08:49:01;16.50;;;2.97;;
61391;SDS011;47261;52.892;5.738;2023-12-20T08:51:27;15.90;;;2.65;;
61391;SDS011;47261;52.892;5.738;2023-12-20T08:53:53;15.57;;;2.67;;
61391;SDS011;47261;52.892;5.738;2023-12-20T08:56:18;15.65;;;2.85;;
61391;SDS011;47261;52.892;5.738;2023-12-20T08:58:45;16.83;;;2.78;;
61391;SDS011;47261;52.892;5.738;2023-12-20T09:01:12;16.25;;;2.45;;
61391;SDS011;47261;52.892;5.738;2023-12-20T09:03:38;14.90;;;2.33;;
61391;SDS011;47261;52.892;5.738;2023-12-20T09:06:04;18.10;;;2.80;;
61391;SDS011;47261;52.892;5.738;2023-12-20T09:08:30;13.48;;;2.33;;
61391;SDS011;47261;52.892;5.738;2023-12-20T09:10:56;14.32;;;2.10;;
61391;SDS011;47261;52.892;5.738;2023-12-20T09:13:22;13.13;;;2.67;;
61391;SDS011;47261;52.892;5.738;2023-12-20T09:15:53;14.10;;;2.28;;
61391;SDS011;47261;52.892;5.738;2023-12-20T09:18:20;16.48;;;3.03;;
61391;SDS011;47261;52.892;5.738;2023-12-20T09:20:45;18.10;;;2.73;;
61391;SDS011;47261;52.892;5.738;2023-12-20T09:23:11;14.57;;;2.53;;
61391;SDS011;47261;52.892;5.738;2023-12-20T09:25:36;18.37;;;2.60;;
61391;SDS011;47261;52.892;5.738;2023-12-20T09:28:02;15.93;;;2.77;;
61391;SDS011;47261;52.892;5.738;2023-12-20T09:30:28;12.07;;;1.38;;
61391;SDS011;47261;52.892;5.738;2023-12-20T09:32:54;8.25;;;1.35;;
61391;SDS011;47261;52.892;5.738;2023-12-20T09:35:20;7.07;;;0.73;;
61391;SDS011;47261;52.892;5.738;2023-12-20T09:37:46;4.72;;;1.08;;
61391;SDS011;47261;52.892;5.738;2023-12-20T09:40:12;7.95;;;0.55;;
61391;SDS011;47261;52.892;5.738;2023-12-20T09:45:21;5.47;;;0.50;;
61391;SDS011;47261;52.892;5.738;2023-12-20T09:47:48;3.78;;;0.30;;
61391;SDS011;47261;52.892;5.738;2023-12-20T09:50:15;6.75;;;0.35;;
61391;SDS011;47261;52.892;5.738;2023-12-20T09:52:44;5.47;;;0.57;;
61391;SDS011;47261;52.892;5.738;2023-12-20T09:55:14;9.38;;;1.02;;
61391;SDS011;47261;52.892;5.738;2023-12-20T09:57:42;14.85;;;1.33;;
61391;SDS011;47261;52.892;5.738;2023-12-20T10:00:07;11.33;;;1.50;;
61391;SDS011;47261;52.892;5.738;2023-12-20T10:02:34;14.23;;;1.02;;
61391;SDS011;47261;52.892;5.738;2023-12-20T10:05:01;15.25;;;1.38;;
61391;SDS011;47261;52.892;5.738;2023-12-20T10:07:28;18.45;;;1.33;;
61391;SDS011;47261;52.892;5.738;2023-12-20T10:09:54;14.40;;;1.27;;
61391;SDS011;47261;52.892;5.738;2023-12-20T10:12:21;11.83;;;1.10;;
61391;SDS011;47261;52.892;5.738;2023-12-20T10:14:46;13.88;;;1.20;;
61391;SDS011;47261;52.892;5.738;2023-12-20T10:17:12;11.60;;;0.90;;
61391;SDS011;47261;52.892;5.738;2023-12-20T10:19:38;13.75;;;0.90;;
61391;SDS011;47261;52.892;5.738;2023-12-20T10:22:04;7.53;;;0.80;;
61391;SDS011;47261;52.892;5.738;2023-12-20T10:24:30;6.13;;;0.70;;
61391;SDS011;47261;52.892;5.738;2023-12-20T10:27:06;9.95;;;0.52;;
61391;SDS011;47261;52.892;5.738;2023-12-20T10:29:35;6.87;;;0.70;;
61391;SDS011;47261;52.892;5.738;2023-12-20T10:32:21;12.43;;;1.05;;
61391;SDS011;47261;52.892;5.738;2023-12-20T10:34:51;12.32;;;0.85;;
61391;SDS011;47261;52.892;5.738;2023-12-20T10:37:17;4.68;;;0.70;;
61391;SDS011;47261;52.892;5.738;2023-12-20T10:39:43;5.93;;;1.00;;
61391;SDS011;47261;52.892;5.738;2023-12-20T10:42:11;9.95;;;0.70;;
61391;SDS011;47261;52.892;5.738;2023-12-20T10:44:37;6.70;;;0.90;;
61391;SDS011;47261;52.892;5.738;2023-12-20T10:47:03;4.80;;;0.80;;
61391;SDS011;47261;52.892;5.738;2023-12-20T10:49:30;8.18;;;0.80;;
61391;SDS011;47261;52.892;5.738;2023-12-20T10:51:57;7.22;;;0.95;;
61391;SDS011;47261;52.892;5.738;2023-12-20T10:54:27;7.10;;;0.88;;
61391;SDS011;47261;52.892;5.738;2023-12-20T10:56:52;5.87;;;0.63;;
61391;SDS011;47261;52.892;5.738;2023-12-20T10:59:19;8.05;;;0.77;;
61391;SDS011;47261;52.892;5.738;2023-12-20T11:01:48;5.90;;;0.43;;
61391;SDS011;47261;52.892;5.738;2023-12-20T11:04:15;7.53;;;0.65;;
61391;SDS011;47261;52.892;5.738;2023-12-20T11:06:51;5.55;;;0.57;;
61391;SDS011;47261;52.892;5.738;2023-12-20T11:09:24;9.90;;;0.57;;
61391;SDS011;47261;52.892;5.738;2023-12-20T11:17:22;12.23;;;1.35;;
61391;SDS011;47261;52.892;5.738;2023-12-20T11:22:18;11.37;;;0.60;;
61391;SDS011;47261;52.892;5.738;2023-12-20T11:24:45;18.33;;;0.88;;
61391;SDS011;47261;52.892;5.738;2023-12-20T11:27:12;22.08;;;1.05;;
61391;SDS011;47261;52.892;5.738;2023-12-20T11:29:38;11.52;;;0.80;;
61391;SDS011;47261;52.892;5.738;2023-12-20T11:34:50;7.30;;;0.50;;
61391;SDS011;47261;52.892;5.738;2023-12-20T11:37:16;9.27;;;0.63;;
61391;SDS011;47261;52.892;5.738;2023-12-20T11:39:45;7.80;;;0.70;;
61391;SDS011;47261;52.892;5.738;2023-12-20T11:42:18;9.27;;;0.55;;
61391;SDS011;47261;52.892;5.738;2023-12-20T11:44:45;2.28;;;0.20;;
61391;SDS011;47261;52.892;5.738;2023-12-20T11:47:12;5.45;;;0.70;;
61391;SDS011;47261;52.892;5.738;2023-12-20T11:49:38;6.90;;;0.40;;
61391;SDS011;47261;52.892;5.738;2023-12-20T11:52:05;8.43;;;1.38;;
61391;SDS011;47261;52.892;5.738;2023-12-20T11:54:31;4.27;;;0.50;;
61391;SDS011;47261;52.892;5.738;2023-12-20T11:56:57;8.40;;;0.98;;
61391;SDS011;47261;52.892;5.738;2023-12-20T11:59:22;8.80;;;1.03;;
61391;SDS011;47261;52.892;5.738;2023-12-20T12:01:48;3.83;;;0.88;;
61391;SDS011;47261;52.892;5.738;2023-12-20T12:04:15;5.93;;;0.47;;
61391;SDS011;47261;52.892;5.738;2023-12-20T12:06:42;5.10;;;0.77;;
61391;SDS011;47261;52.892;5.738;2023-12-20T12:09:09;6.53;;;0.40;;
61391;SDS011;47261;52.892;5.738;2023-12-20T12:11:35;5.63;;;0.30;;
61391;SDS011;47261;52.892;5.738;2023-12-20T12:14:00;7.40;;;0.63;;
61391;SDS011;47261;52.892;5.738;2023-12-20T12:16:26;5.07;;;0.50;;
61391;SDS011;47261;52.892;5.738;2023-12-20T12:18:56;9.53;;;0.70;;
61391;SDS011;47261;52.892;5.738;2023-12-20T12:21:22;4.43;;;0.60;;
61391;SDS011;47261;52.892;5.738;2023-12-20T12:23:47;3.25;;;0.20;;
61391;SDS011;47261;52.892;5.738;2023-12-20T12:26:13;5.60;;;0.50;;
61391;SDS011;47261;52.892;5.738;2023-12-20T12:28:42;4.35;;;0.47;;
61391;SDS011;47261;52.892;5.738;2023-12-20T12:31:17;12.40;;;0.90;;
61391;SDS011;47261;52.892;5.738;2023-12-20T12:33:42;4.97;;;0.60;;
61391;SDS011;47261;52.892;5.738;2023-12-20T12:36:09;6.40;;;0.55;;
61391;SDS011;47261;52.892;5.738;2023-12-20T12:38:37;2.35;;;0.35;;
61391;SDS011;47261;52.892;5.738;2023-12-20T12:41:03;9.03;;;0.77;;
61391;SDS011;47261;52.892;5.738;2023-12-20T12:43:30;7.53;;;0.38;;
61391;SDS011;47261;52.892;5.738;2023-12-20T12:45:56;9.93;;;0.57;;
61391;SDS011;47261;52.892;5.738;2023-12-20T12:48:21;9.60;;;0.47;;
61391;SDS011;47261;52.892;5.738;2023-12-20T12:50:47;13.07;;;0.90;;
61391;SDS011;47261;52.892;5.738;2023-12-20T12:53:13;6.83;;;0.93;;
61391;SDS011;47261;52.892;5.738;2023-12-20T12:55:38;6.63;;;0.50;;
61391;SDS011;47261;52.892;5.738;2023-12-20T12:58:04;9.00;;;0.70;;
61391;SDS011;47261;52.892;5.738;2023-12-20T13:00:30;5.90;;;0.50;;
61391;SDS011;47261;52.892;5.738;2023-12-20T13:02:55;12.02;;;0.75;;
61391;SDS011;47261;52.892;5.738;2023-12-20T13:05:21;13.43;;;1.23;;
61391;SDS011;47261;52.892;5.738;2023-12-20T13:07:46;11.03;;;0.60;;
61391;SDS011;47261;52.892;5.738;2023-12-20T13:10:12;10.97;;;0.90;;
61391;SDS011;47261;52.892;5.738;2023-12-20T13:12:41;12.45;;;1.35;;
61391;SDS011;47261;52.892;5.738;2023-12-20T13:15:07;12.05;;;0.65;;
61391;SDS011;47261;52.892;5.738;2023-12-20T13:17:34;11.32;;;1.23;;
61391;SDS011;47261;52.892;5.738;2023-12-20T13:19:59;21.00;;;1.63;;
61391;SDS011;47261;52.892;5.738;2023-12-20T13:22:25;16.55;;;1.45;;
61391;SDS011;47261;52.892;5.738;2023-12-20T13:24:51;15.13;;;1.40;;
61391;SDS011;47261;52.892;5.738;2023-12-20T13:27:16;9.67;;;0.93;;
61391;SDS011;47261;52.892;5.738;2023-12-20T13:29:42;10.18;;;1.00;;
61391;SDS011;47261;52.892;5.738;2023-12-20T13:32:07;10.73;;;1.03;;
61391;SDS011;47261;52.892;5.738;2023-12-20T13:34:33;8.30;;;0.52;;
61391;SDS011;47261;52.892;5.738;2023-12-20T13:36:59;11.47;;;0.60;;
61391;SDS011;47261;52.892;5.738;2023-12-20T13:39:24;10.20;;;1.03;;
61391;SDS011;47261;52.892;5.738;2023-12-20T13:41:50;18.55;;;1.58;;
61391;SDS011;47261;52.892;5.738;2023-12-20T13:44:16;17.53;;;1.17;;
61391;SDS011;47261;52.892;5.738;2023-12-20T13:46:41;12.27;;;1.67;;
61391;SDS011;47261;52.892;5.738;2023-12-20T13:49:07;10.43;;;2.20;;
61391;SDS011;47261;52.892;5.738;2023-12-20T13:51:33;17.35;;;1.88;;
61391;SDS011;47261;52.892;5.738;2023-12-20T13:53:58;16.27;;;2.63;;
61391;SDS011;47261;52.892;5.738;2023-12-20T13:56:25;11.77;;;1.80;;
61391;SDS011;47261;52.892;5.738;2023-12-20T13:58:50;28.27;;;2.23;;
61391;SDS011;47261;52.892;5.738;2023-12-20T14:01:16;10.77;;;2.03;;
61391;SDS011;47261;52.892;5.738;2023-12-20T14:03:42;12.43;;;1.60;;
61391;SDS011;47261;52.892;5.738;2023-12-20T14:06:07;12.73;;;1.38;;
61391;SDS011;47261;52.892;5.738;2023-12-20T14:08:33;18.03;;;1.67;;
61391;SDS011;47261;52.892;5.738;2023-12-20T14:10:59;19.20;;;2.40;;
61391;SDS011;47261;52.892;5.738;2023-12-20T14:13:26;18.38;;;1.67;;
61391;SDS011;47261;52.892;5.738;2023-12-20T14:15:51;18.37;;;1.67;;
61391;SDS011;47261;52.892;5.738;2023-12-20T14:18:19;14.95;;;1.65;;
61391;SDS011;47261;52.892;5.738;2023-12-20T14:20:45;7.88;;;1.40;;
61391;SDS011;47261;52.892;5.738;2023-12-20T14:23:12;13.50;;;1.77;;
61391;SDS011;47261;52.892;5.738;2023-12-20T14:25:39;13.68;;;2.10;;
61391;SDS011;47261;52.892;5.738;2023-12-20T14:28:06;16.73;;;1.42;;
61391;SDS011;47261;52.892;5.738;2023-12-20T14:30:32;13.53;;;1.77;;
61391;SDS011;47261;52.892;5.738;2023-12-20T14:32:57;15.25;;;1.73;;
61391;SDS011;47261;52.892;5.738;2023-12-20T14:35:23;22.77;;;2.30;;
61391;SDS011;47261;52.892;5.738;2023-12-20T14:37:49;18.07;;;1.63;;
61391;SDS011;47261;52.892;5.738;2023-12-20T14:40:15;15.80;;;1.90;;
61391;SDS011;47261;52.892;5.738;2023-12-20T14:42:44;12.43;;;1.58;;
61391;SDS011;47261;52.892;5.738;2023-12-20T14:45:10;13.90;;;1.83;;